VSP289 SBEG-SBSN
Flight info
| Callsign | VSP289 |
|---|---|
| Flight time | 0h 53m |
| Altitude | 29000 |
| Route | XOLOK UZ81 TOBUX DCT STM |
| Aircraft | B738/M-SDE2E3FGHIRWXY/LB1 |
Departure
| Time | 2026-04-28 07:48 |
|---|---|
| Airport | Eduardo Gomes International Airport (SBEG) |
Arrival
| Time | 2026-04-28 08:42 |
|---|---|
| Airport | Santarém - Maestro Wilson Fonseca International Airport (SBSN) |
| Time | Latitude | Longitude | Altitude | Speed | Heading |
|---|---|---|---|---|---|
| 2026-04-28 07:29 | -3.03271 | -60.04539 | 273 ft | 0 kts | 353° |
| 2026-04-28 07:34 | -3.03283 | -60.04538 | 273 ft | 2 kts | 353° |
| 2026-04-28 07:34 | -3.03298 | -60.04536 | 273 ft | 2 kts | 354° |
| 2026-04-28 07:34 | -3.03313 | -60.04534 | 273 ft | 2 kts | 353° |
| 2026-04-28 07:35 | -3.03328 | -60.04533 | 273 ft | 2 kts | 354° |
| 2026-04-28 07:35 | -3.03337 | -60.04532 | 273 ft | 2 kts | 352° |
| 2026-04-28 07:35 | -3.03348 | -60.04523 | 273 ft | 2 kts | 291° |
| 2026-04-28 07:35 | -3.03350 | -60.04515 | 273 ft | 0 kts | 260° |
| 2026-04-28 07:36 | -3.03348 | -60.04509 | 273 ft | 0 kts | 261° |
| 2026-04-28 07:36 | -3.03349 | -60.04509 | 273 ft | 0 kts | 261° |
| 2026-04-28 07:37 | -3.03349 | -60.04511 | 273 ft | 0 kts | 261° |
| 2026-04-28 07:37 | -3.03349 | -60.04518 | 273 ft | 1 kts | 264° |
| 2026-04-28 07:38 | -3.03351 | -60.04533 | 273 ft | 2 kts | 264° |
| 2026-04-28 07:38 | -3.03353 | -60.04559 | 273 ft | 4 kts | 266° |
| 2026-04-28 07:38 | -3.03355 | -60.04599 | 273 ft | 6 kts | 270° |
| 2026-04-28 07:38 | -3.03353 | -60.04650 | 273 ft | 7 kts | 272° |
| 2026-04-28 07:39 | -3.03354 | -60.04701 | 273 ft | 6 kts | 264° |
| 2026-04-28 07:39 | -3.03362 | -60.04742 | 273 ft | 5 kts | 254° |
| 2026-04-28 07:39 | -3.03373 | -60.04771 | 273 ft | 3 kts | 245° |
| 2026-04-28 07:39 | -3.03385 | -60.04792 | 273 ft | 4 kts | 238° |
| 2026-04-28 07:40 | -3.03404 | -60.04819 | 273 ft | 5 kts | 231° |
| 2026-04-28 07:40 | -3.03438 | -60.04853 | 273 ft | 8 kts | 219° |
| 2026-04-28 07:40 | -3.03488 | -60.04892 | 273 ft | 10 kts | 217° |
| 2026-04-28 07:40 | -3.03543 | -60.04947 | 273 ft | 11 kts | 233° |
| 2026-04-28 07:41 | -3.03581 | -60.05013 | 273 ft | 10 kts | 249° |
| 2026-04-28 07:41 | -3.03600 | -60.05078 | 273 ft | 9 kts | 255° |
| 2026-04-28 07:41 | -3.03617 | -60.05143 | 273 ft | 9 kts | 255° |
| 2026-04-28 07:41 | -3.03634 | -60.05210 | 273 ft | 9 kts | 255° |
| 2026-04-28 07:42 | -3.03651 | -60.05272 | 273 ft | 8 kts | 255° |
| 2026-04-28 07:42 | -3.03666 | -60.05335 | 273 ft | 8 kts | 258° |
| 2026-04-28 07:42 | -3.03678 | -60.05393 | 273 ft | 8 kts | 259° |
| 2026-04-28 07:42 | -3.03686 | -60.05453 | 273 ft | 9 kts | 264° |
| 2026-04-28 07:43 | -3.03690 | -60.05515 | 273 ft | 8 kts | 267° |
| 2026-04-28 07:43 | -3.03690 | -60.05573 | 273 ft | 8 kts | 270° |
| 2026-04-28 07:43 | -3.03690 | -60.05627 | 273 ft | 7 kts | 270° |
| 2026-04-28 07:43 | -3.03690 | -60.05677 | 273 ft | 7 kts | 270° |
| 2026-04-28 07:44 | -3.03690 | -60.05734 | 273 ft | 8 kts | 270° |
| 2026-04-28 07:44 | -3.03690 | -60.05798 | 273 ft | 9 kts | 270° |
| 2026-04-28 07:44 | -3.03689 | -60.05869 | 273 ft | 10 kts | 270° |
| 2026-04-28 07:44 | -3.03689 | -60.05946 | 273 ft | 11 kts | 269° |
| 2026-04-28 07:45 | -3.03689 | -60.06029 | 273 ft | 11 kts | 270° |
| 2026-04-28 07:45 | -3.03693 | -60.06105 | 273 ft | 9 kts | 257° |
| 2026-04-28 07:45 | -3.03723 | -60.06156 | 273 ft | 7 kts | 220° |
| 2026-04-28 07:45 | -3.03767 | -60.06174 | 273 ft | 6 kts | 187° |
| 2026-04-28 07:46 | -3.03805 | -60.06175 | 273 ft | 4 kts | 175° |
| 2026-04-28 07:46 | -3.03831 | -60.06168 | 273 ft | 3 kts | 164° |
| 2026-04-28 07:46 | -3.03850 | -60.06156 | 273 ft | 2 kts | 131° |
| 2026-04-28 07:46 | -3.03856 | -60.06141 | 273 ft | 1 kts | 101° |
| 2026-04-28 07:47 | -3.03857 | -60.06126 | 273 ft | 2 kts | 92° |
| 2026-04-28 07:47 | -3.03858 | -60.06110 | 273 ft | 2 kts | 91° |
| 2026-04-28 07:47 | -3.03858 | -60.05957 | 273 ft | 57 kts | 89° |
| 2026-04-28 07:47 | -3.03859 | -60.05280 | 274 ft | 130 kts | 90° |
| 2026-04-28 07:48 | -3.03857 | -60.04179 | 285 ft | 179 kts | 90° |
| 2026-04-28 07:48 | -3.03862 | -60.02898 | 734 ft | 188 kts | 90° |
| 2026-04-28 07:48 | -3.03883 | -60.01526 | 1221 ft | 207 kts | 91° |
| 2026-04-28 07:48 | -3.03898 | -60.00016 | 1723 ft | 226 kts | 90° |
| 2026-04-28 07:49 | -3.03941 | -59.98391 | 2210 ft | 240 kts | 92° |
| 2026-04-28 07:49 | -3.04015 | -59.96710 | 2711 ft | 244 kts | 92° |
| 2026-04-28 07:49 | -3.04092 | -59.94990 | 3224 ft | 255 kts | 92° |
| 2026-04-28 07:49 | -3.04161 | -59.93197 | 3732 ft | 263 kts | 91° |
| 2026-04-28 07:50 | -3.04225 | -59.91345 | 4235 ft | 266 kts | 91° |
| 2026-04-28 07:50 | -3.04285 | -59.89521 | 4774 ft | 266 kts | 91° |
| 2026-04-28 07:50 | -3.04346 | -59.87661 | 5408 ft | 268 kts | 91° |
| 2026-04-28 07:50 | -3.04406 | -59.85783 | 6038 ft | 271 kts | 91° |
| 2026-04-28 07:51 | -3.04467 | -59.83896 | 6663 ft | 273 kts | 91° |
| 2026-04-28 07:51 | -3.04527 | -59.82000 | 7288 ft | 275 kts | 91° |
| 2026-04-28 07:51 | -3.04587 | -59.80091 | 7913 ft | 277 kts | 91° |
| 2026-04-28 07:51 | -3.04646 | -59.78180 | 8535 ft | 278 kts | 91° |
| 2026-04-28 07:52 | -3.04705 | -59.76254 | 9157 ft | 280 kts | 91° |
| 2026-04-28 07:52 | -3.04765 | -59.74288 | 9788 ft | 282 kts | 91° |
| 2026-04-28 07:52 | -3.04823 | -59.72354 | 10366 ft | 287 kts | 91° |
| 2026-04-28 07:52 | -3.04889 | -59.70263 | 10559 ft | 311 kts | 92° |
| 2026-04-28 07:53 | -3.04968 | -59.68031 | 10645 ft | 336 kts | 92° |
| 2026-04-28 07:53 | -3.05055 | -59.65624 | 11067 ft | 348 kts | 92° |
| 2026-04-28 07:53 | -3.05142 | -59.63188 | 11740 ft | 352 kts | 92° |
| 2026-04-28 07:53 | -3.05229 | -59.60746 | 12436 ft | 355 kts | 92° |
| 2026-04-28 07:54 | -3.05316 | -59.58280 | 13103 ft | 359 kts | 92° |
| 2026-04-28 07:54 | -3.05404 | -59.55767 | 13772 ft | 363 kts | 92° |
| 2026-04-28 07:54 | -3.05494 | -59.53228 | 14438 ft | 367 kts | 92° |
| 2026-04-28 07:54 | -3.05584 | -59.50653 | 15100 ft | 371 kts | 92° |
| 2026-04-28 07:55 | -3.05674 | -59.48081 | 15742 ft | 374 kts | 93° |
| 2026-04-28 07:55 | -3.05766 | -59.45487 | 16362 ft | 378 kts | 93° |
| 2026-04-28 07:55 | -3.05858 | -59.42845 | 16970 ft | 382 kts | 93° |
| 2026-04-28 07:55 | -3.05952 | -59.40163 | 17564 ft | 386 kts | 93° |
| 2026-04-28 07:56 | -3.06047 | -59.37464 | 18138 ft | 390 kts | 93° |
| 2026-04-28 07:56 | -3.06142 | -59.34722 | 18710 ft | 393 kts | 93° |
| 2026-04-28 07:56 | -3.06237 | -59.32005 | 19260 ft | 397 kts | 93° |
| 2026-04-28 07:56 | -3.06335 | -59.29229 | 19801 ft | 401 kts | 93° |
| 2026-04-28 07:57 | -3.06434 | -59.26402 | 20337 ft | 404 kts | 93° |
| 2026-04-28 07:57 | -3.06532 | -59.23607 | 20839 ft | 408 kts | 93° |
| 2026-04-28 07:57 | -3.06632 | -59.20749 | 21341 ft | 411 kts | 93° |
| 2026-04-28 07:57 | -3.06731 | -59.17898 | 21819 ft | 415 kts | 93° |
| 2026-04-28 07:58 | -3.06832 | -59.14994 | 22290 ft | 418 kts | 93° |
| 2026-04-28 07:58 | -3.06934 | -59.12073 | 22754 ft | 421 kts | 93° |
| 2026-04-28 07:58 | -3.07036 | -59.09153 | 23195 ft | 425 kts | 93° |
| 2026-04-28 07:58 | -3.07139 | -59.06181 | 23639 ft | 428 kts | 93° |
| 2026-04-28 07:59 | -3.07242 | -59.03200 | 24063 ft | 431 kts | 93° |
| 2026-04-28 07:59 | -3.07346 | -59.00206 | 24466 ft | 434 kts | 93° |
| 2026-04-28 07:59 | -3.07444 | -58.97206 | 24859 ft | 438 kts | 93° |
| 2026-04-28 07:59 | -3.07534 | -58.94157 | 25205 ft | 441 kts | 93° |
| 2026-04-28 08:00 | -3.07613 | -58.91077 | 25554 ft | 444 kts | 92° |
| 2026-04-28 08:00 | -3.07684 | -58.87961 | 25890 ft | 447 kts | 92° |
| 2026-04-28 08:00 | -3.07748 | -58.84860 | 26219 ft | 450 kts | 92° |
| 2026-04-28 08:00 | -3.07810 | -58.81718 | 26535 ft | 453 kts | 92° |
| 2026-04-28 08:01 | -3.07871 | -58.78571 | 26854 ft | 456 kts | 92° |
| 2026-04-28 08:01 | -3.07935 | -58.75367 | 27175 ft | 458 kts | 92° |
| 2026-04-28 08:01 | -3.08002 | -58.72185 | 27488 ft | 461 kts | 92° |
| 2026-04-28 08:01 | -3.08077 | -58.68967 | 27792 ft | 463 kts | 92° |
| 2026-04-28 08:02 | -3.08160 | -58.65776 | 28091 ft | 466 kts | 92° |
| 2026-04-28 08:02 | -3.08258 | -58.62497 | 28387 ft | 468 kts | 92° |
| 2026-04-28 08:02 | -3.08367 | -58.59257 | 28680 ft | 470 kts | 93° |
| 2026-04-28 08:02 | -3.08488 | -58.55979 | 28906 ft | 470 kts | 93° |
| 2026-04-28 08:03 | -3.08745 | -58.49395 | 28914 ft | 478 kts | 93° |
| 2026-04-28 08:03 | -3.09127 | -58.42736 | 28909 ft | 480 kts | 97° |
| 2026-04-28 08:04 | -3.08843 | -58.36079 | 28926 ft | 481 kts | 82° |
| 2026-04-28 08:04 | -3.07744 | -58.29499 | 28937 ft | 481 kts | 79° |
| 2026-04-28 08:05 | -3.06235 | -58.22991 | 28939 ft | 481 kts | 77° |
| 2026-04-28 08:05 | -3.04652 | -58.16479 | 28939 ft | 481 kts | 77° |
| 2026-04-28 08:06 | -3.03085 | -58.09972 | 28939 ft | 480 kts | 76° |
| 2026-04-28 08:06 | -3.01587 | -58.03487 | 28939 ft | 478 kts | 76° |
| 2026-04-28 08:07 | -3.00012 | -57.97047 | 28939 ft | 477 kts | 75° |
| 2026-04-28 08:07 | -2.98393 | -57.90608 | 28939 ft | 476 kts | 75° |
| 2026-04-28 08:08 | -2.96774 | -57.84189 | 28939 ft | 475 kts | 75° |
| 2026-04-28 08:08 | -2.95178 | -57.77802 | 28938 ft | 474 kts | 75° |
| 2026-04-28 08:09 | -2.93589 | -57.71408 | 28939 ft | 473 kts | 75° |
| 2026-04-28 08:09 | -2.92010 | -57.65035 | 28939 ft | 473 kts | 75° |
| 2026-04-28 08:10 | -2.90425 | -57.58620 | 28939 ft | 472 kts | 75° |
| 2026-04-28 08:10 | -2.88852 | -57.52254 | 28939 ft | 472 kts | 76° |
| 2026-04-28 08:11 | -2.87279 | -57.45883 | 28939 ft | 471 kts | 76° |
| 2026-04-28 08:11 | -2.85708 | -57.39521 | 28939 ft | 471 kts | 76° |
| 2026-04-28 08:12 | -2.84138 | -57.33162 | 28939 ft | 471 kts | 76° |
| 2026-04-28 08:12 | -2.82568 | -57.26805 | 28939 ft | 471 kts | 76° |
| 2026-04-28 08:13 | -2.80990 | -57.20416 | 28939 ft | 471 kts | 76° |
| 2026-04-28 08:13 | -2.79422 | -57.14072 | 28939 ft | 471 kts | 76° |
| 2026-04-28 08:14 | -2.77852 | -57.07715 | 28939 ft | 472 kts | 75° |
| 2026-04-28 08:14 | -2.76274 | -57.01334 | 28939 ft | 473 kts | 75° |
| 2026-04-28 08:15 | -2.74687 | -56.94915 | 28939 ft | 476 kts | 75° |
| 2026-04-28 08:15 | -2.73093 | -56.88470 | 28939 ft | 479 kts | 75° |
| 2026-04-28 08:16 | -2.71492 | -56.82000 | 28939 ft | 480 kts | 75° |
| 2026-04-28 08:16 | -2.69883 | -56.75495 | 28938 ft | 479 kts | 75° |
| 2026-04-28 08:17 | -2.68290 | -56.69059 | 28939 ft | 479 kts | 75° |
| 2026-04-28 08:17 | -2.66706 | -56.62660 | 28930 ft | 462 kts | 75° |
| 2026-04-28 08:18 | -2.65944 | -56.59579 | 28940 ft | 448 kts | 75° |
| 2026-04-28 08:18 | -2.65203 | -56.56584 | 28943 ft | 446 kts | 75° |
| 2026-04-28 08:18 | -2.63689 | -56.50480 | 28940 ft | 454 kts | 75° |
| 2026-04-28 08:19 | -2.62238 | -56.44400 | 28936 ft | 452 kts | 78° |
| 2026-04-28 08:19 | -2.61342 | -56.38285 | 28509 ft | 435 kts | 82° |
| 2026-04-28 08:20 | -2.60965 | -56.35300 | 27790 ft | 434 kts | 82° |
| 2026-04-28 08:20 | -2.60602 | -56.32338 | 27165 ft | 429 kts | 82° |
| 2026-04-28 08:20 | -2.60249 | -56.29410 | 26563 ft | 425 kts | 82° |
| 2026-04-28 08:20 | -2.59900 | -56.26479 | 25961 ft | 421 kts | 82° |
| 2026-04-28 08:21 | -2.59559 | -56.23587 | 25361 ft | 416 kts | 82° |
| 2026-04-28 08:21 | -2.59230 | -56.20772 | 24778 ft | 412 kts | 82° |
| 2026-04-28 08:21 | -2.58901 | -56.17947 | 24190 ft | 408 kts | 82° |
| 2026-04-28 08:21 | -2.58572 | -56.15119 | 23599 ft | 403 kts | 82° |
| 2026-04-28 08:22 | -2.58255 | -56.12375 | 23022 ft | 399 kts | 82° |
| 2026-04-28 08:22 | -2.57939 | -56.09643 | 22446 ft | 395 kts | 82° |
| 2026-04-28 08:22 | -2.57625 | -56.06919 | 21870 ft | 391 kts | 82° |
| 2026-04-28 08:22 | -2.57315 | -56.04237 | 21300 ft | 387 kts | 82° |
| 2026-04-28 08:23 | -2.57010 | -56.01584 | 20733 ft | 383 kts | 82° |
| 2026-04-28 08:23 | -2.56707 | -55.98953 | 20169 ft | 379 kts | 82° |
| 2026-04-28 08:23 | -2.56409 | -55.96360 | 19610 ft | 375 kts | 82° |
| 2026-04-28 08:23 | -2.56115 | -55.93805 | 19058 ft | 371 kts | 82° |
| 2026-04-28 08:24 | -2.55818 | -55.91230 | 18499 ft | 367 kts | 82° |
| 2026-04-28 08:24 | -2.55528 | -55.88715 | 17953 ft | 364 kts | 82° |
| 2026-04-28 08:24 | -2.55243 | -55.86241 | 17411 ft | 360 kts | 82° |
| 2026-04-28 08:24 | -2.54959 | -55.83772 | 16872 ft | 357 kts | 82° |
| 2026-04-28 08:25 | -2.54676 | -55.81317 | 16330 ft | 353 kts | 82° |
| 2026-04-28 08:25 | -2.54395 | -55.78883 | 15794 ft | 350 kts | 82° |
| 2026-04-28 08:25 | -2.54121 | -55.76495 | 15266 ft | 346 kts | 82° |
| 2026-04-28 08:26 | -2.53576 | -55.71767 | 14214 ft | 340 kts | 83° |
| 2026-04-28 08:26 | -2.53308 | -55.69445 | 13697 ft | 337 kts | 83° |
| 2026-04-28 08:26 | -2.53041 | -55.67122 | 13173 ft | 334 kts | 83° |
| 2026-04-28 08:26 | -2.52779 | -55.64847 | 12662 ft | 331 kts | 83° |
| 2026-04-28 08:27 | -2.52517 | -55.62579 | 12149 ft | 328 kts | 83° |
| 2026-04-28 08:27 | -2.52256 | -55.60313 | 11637 ft | 325 kts | 83° |
| 2026-04-28 08:27 | -2.52000 | -55.58096 | 11202 ft | 320 kts | 83° |
| 2026-04-28 08:27 | -2.51752 | -55.55938 | 11034 ft | 299 kts | 83° |
| 2026-04-28 08:28 | -2.51523 | -55.53955 | 10898 ft | 279 kts | 83° |
| 2026-04-28 08:28 | -2.51306 | -55.52070 | 10717 ft | 272 kts | 83° |
| 2026-04-28 08:28 | -2.51091 | -55.50210 | 10509 ft | 266 kts | 83° |
| 2026-04-28 08:28 | -2.50879 | -55.48374 | 10312 ft | 261 kts | 83° |
| 2026-04-28 08:29 | -2.50684 | -55.46603 | 10121 ft | 256 kts | 83° |
| 2026-04-28 08:29 | -2.50511 | -55.44850 | 9925 ft | 254 kts | 83° |
| 2026-04-28 08:29 | -2.50335 | -55.43046 | 9596 ft | 268 kts | 83° |
| 2026-04-28 08:29 | -2.50151 | -55.41174 | 9241 ft | 269 kts | 83° |
| 2026-04-28 08:30 | -2.49967 | -55.39314 | 8909 ft | 269 kts | 83° |
| 2026-04-28 08:30 | -2.49784 | -55.37468 | 8583 ft | 268 kts | 83° |
| 2026-04-28 08:30 | -2.49601 | -55.35622 | 8255 ft | 268 kts | 83° |
| 2026-04-28 08:30 | -2.49416 | -55.33756 | 7925 ft | 267 kts | 83° |
| 2026-04-28 08:31 | -2.49232 | -55.31908 | 7596 ft | 267 kts | 83° |
| 2026-04-28 08:31 | -2.49048 | -55.30060 | 7265 ft | 267 kts | 83° |
| 2026-04-28 08:31 | -2.48865 | -55.28222 | 6938 ft | 266 kts | 83° |
| 2026-04-28 08:31 | -2.48684 | -55.26394 | 6612 ft | 266 kts | 83° |
| 2026-04-28 08:32 | -2.48500 | -55.24551 | 6273 ft | 262 kts | 83° |
| 2026-04-28 08:32 | -2.48326 | -55.22797 | 5989 ft | 249 kts | 83° |
| 2026-04-28 08:32 | -2.48159 | -55.21110 | 5661 ft | 239 kts | 83° |
| 2026-04-28 08:32 | -2.47997 | -55.19484 | 5360 ft | 229 kts | 83° |
| 2026-04-28 08:33 | -2.47844 | -55.17947 | 5105 ft | 218 kts | 83° |
| 2026-04-28 08:33 | -2.47699 | -55.16494 | 4858 ft | 204 kts | 83° |
| 2026-04-28 08:33 | -2.47561 | -55.15108 | 4570 ft | 194 kts | 83° |
| 2026-04-28 08:33 | -2.47433 | -55.13815 | 4335 ft | 183 kts | 84° |
| 2026-04-28 08:34 | -2.47351 | -55.12548 | 4138 ft | 181 kts | 86° |
| 2026-04-28 08:34 | -2.47282 | -55.11304 | 3900 ft | 180 kts | 86° |
| 2026-04-28 08:34 | -2.47214 | -55.10053 | 3648 ft | 177 kts | 86° |
| 2026-04-28 08:34 | -2.47117 | -55.08833 | 3454 ft | 178 kts | 81° |
| 2026-04-28 08:35 | -2.46918 | -55.07612 | 3233 ft | 177 kts | 79° |
| 2026-04-28 08:35 | -2.46709 | -55.06430 | 3035 ft | 165 kts | 79° |
| 2026-04-28 08:35 | -2.46517 | -55.05316 | 3067 ft | 164 kts | 79° |
| 2026-04-28 08:35 | -2.46323 | -55.04177 | 3061 ft | 169 kts | 80° |
| 2026-04-28 08:36 | -2.46136 | -55.03057 | 3053 ft | 158 kts | 80° |
| 2026-04-28 08:36 | -2.45958 | -55.01977 | 3046 ft | 156 kts | 80° |
| 2026-04-28 08:36 | -2.45783 | -55.00915 | 3059 ft | 153 kts | 80° |
| 2026-04-28 08:36 | -2.45611 | -54.99868 | 3049 ft | 153 kts | 80° |
| 2026-04-28 08:37 | -2.45441 | -54.98831 | 3054 ft | 153 kts | 80° |
| 2026-04-28 08:37 | -2.45269 | -54.97781 | 3053 ft | 153 kts | 80° |
| 2026-04-28 08:37 | -2.45098 | -54.96731 | 3053 ft | 153 kts | 80° |
| 2026-04-28 08:37 | -2.44924 | -54.95673 | 3053 ft | 153 kts | 79° |
| 2026-04-28 08:38 | -2.44746 | -54.94624 | 3054 ft | 153 kts | 79° |
| 2026-04-28 08:38 | -2.44570 | -54.93587 | 2981 ft | 153 kts | 80° |
| 2026-04-28 08:38 | -2.44396 | -54.92533 | 2748 ft | 154 kts | 80° |
| 2026-04-28 08:38 | -2.44224 | -54.91483 | 2521 ft | 150 kts | 80° |
| 2026-04-28 08:39 | -2.44057 | -54.90458 | 2308 ft | 151 kts | 81° |
| 2026-04-28 08:39 | -2.43888 | -54.89415 | 2093 ft | 150 kts | 81° |
| 2026-04-28 08:39 | -2.43723 | -54.88383 | 1881 ft | 150 kts | 81° |
| 2026-04-28 08:39 | -2.43558 | -54.87356 | 1671 ft | 149 kts | 81° |
| 2026-04-28 08:40 | -2.43391 | -54.86338 | 1462 ft | 149 kts | 81° |
| 2026-04-28 08:40 | -2.43224 | -54.85315 | 1254 ft | 149 kts | 81° |
| 2026-04-28 08:40 | -2.43058 | -54.84296 | 1049 ft | 148 kts | 81° |
| 2026-04-28 08:40 | -2.42893 | -54.83284 | 846 ft | 148 kts | 81° |
| 2026-04-28 08:41 | -2.42729 | -54.82267 | 644 ft | 148 kts | 81° |
| 2026-04-28 08:41 | -2.42565 | -54.81253 | 445 ft | 147 kts | 81° |
| 2026-04-28 08:41 | -2.42403 | -54.80248 | 255 ft | 147 kts | 81° |
| 2026-04-28 08:41 | -2.42267 | -54.79403 | 207 ft | 79 kts | 80° |
| 2026-04-28 08:42 | -2.42212 | -54.79075 | 207 ft | 30 kts | 80° |
| 2026-04-28 08:42 | -2.42185 | -54.78916 | 207 ft | 15 kts | 81° |
| 2026-04-28 08:42 | -2.42171 | -54.78828 | 207 ft | 9 kts | 81° |
| 2026-04-28 08:42 | -2.42178 | -54.78762 | 207 ft | 9 kts | 121° |
| 2026-04-28 08:43 | -2.42207 | -54.78730 | 207 ft | 4 kts | 136° |
| 2026-04-28 08:43 | -2.42225 | -54.78713 | 207 ft | 2 kts | 135° |
| 2026-04-28 08:43 | -2.42238 | -54.78700 | 207 ft | 2 kts | 135° |
| 2026-04-28 08:43 | -2.42250 | -54.78688 | 207 ft | 2 kts | 135° |
| 2026-04-28 08:44 | -2.42262 | -54.78676 | 207 ft | 1 kts | 135° |
| 2026-04-28 08:44 | -2.42273 | -54.78665 | 207 ft | 2 kts | 135° |
| 2026-04-28 08:44 | -2.42283 | -54.78655 | 207 ft | 1 kts | 135° |
| 2026-04-28 08:44 | -2.42292 | -54.78646 | 207 ft | 2 kts | 135° |
| 2026-04-28 08:45 | -2.42301 | -54.78638 | 207 ft | 1 kts | 137° |
| 2026-04-28 08:45 | -2.42313 | -54.78627 | 207 ft | 2 kts | 139° |
| 2026-04-28 08:45 | -2.42323 | -54.78619 | 207 ft | 1 kts | 140° |
| 2026-04-28 08:45 | -2.42333 | -54.78611 | 207 ft | 1 kts | 140° |
| 2026-04-28 08:46 | -2.42342 | -54.78603 | 207 ft | 1 kts | 140° |
| 2026-04-28 08:46 | -2.42350 | -54.78596 | 207 ft | 0 kts | 146° |
| 2026-04-28 08:46 | -2.42355 | -54.78595 | 207 ft | 0 kts | 167° |
| 2026-04-28 08:46 | -2.42361 | -54.78595 | 207 ft | 1 kts | 183° |
| 2026-04-28 08:47 | -2.42370 | -54.78595 | 207 ft | 0 kts | 169° |
| 2026-04-28 08:47 | -2.42379 | -54.78591 | 207 ft | 1 kts | 153° |
| 2026-04-28 08:47 | -2.42385 | -54.78587 | 207 ft | 1 kts | 144° |
| 2026-04-28 08:47 | -2.42392 | -54.78582 | 207 ft | 0 kts | 136° |
| 2026-04-28 08:48 | -2.42395 | -54.78578 | 207 ft | 1 kts | 135° |
| 2026-04-28 08:48 | -2.42405 | -54.78568 | 207 ft | 2 kts | 131° |
| 2026-04-28 08:48 | -2.42409 | -54.78563 | 207 ft | 0 kts | 130° |